Time;durP1;ratioP1;P1;durP2;ratioP2;P2;SDS_P1;SDS_P2;PMS_P1;PMS_P2;Temp;Humidity;BMP_temperature;BMP_pressure;BME280_temperature;BME280_humidity;BME280_pressure;Samples;Min_cycle;Max_cycle;Signal;HPM_P1;HPM_P2
2023/12/10 00:02:16;;;;;;;0.40;0.40;;;8.10;99.90;;;;;;5026299;28;20129;-75
2023/12/10 00:04:42;;;;;;;1.83;1.73;;;8.00;99.90;;;;;;5019521;28;20046;-75
2023/12/10 00:07:08;;;;;;;0.60;0.60;;;8.00;99.90;;;;;;5021858;28;20057;-74
2023/12/10 00:09:34;;;;;;;1.42;1.38;;;8.00;99.90;;;;;;5022545;28;20048;-75
2023/12/10 00:11:59;;;;;;;9.18;2.15;;;7.90;99.90;;;;;;5025857;28;20394;-74
2023/12/10 00:14:25;;;;;;;1.20;1.20;;;7.90;99.90;;;;;;5021540;28;20069;-75
2023/12/10 00:16:51;;;;;;;0.85;0.85;;;7.90;99.90;;;;;;5019110;28;20080;-75
2023/12/10 00:19:17;;;;;;;0.32;0.32;;;7.90;99.90;;;;;;5021246;28;20064;-74
2023/12/10 00:21:42;;;;;;;0.50;0.50;;;7.90;99.90;;;;;;5023790;28;20150;-75
2023/12/10 00:24:08;;;;;;;1.88;1.20;;;7.80;99.90;;;;;;5021642;28;20042;-75
2023/12/10 00:26:34;;;;;;;0.60;0.60;;;7.80;99.90;;;;;;5020702;28;20317;-75
2023/12/10 00:28:59;;;;;;;1.92;1.83;;;7.80;99.90;;;;;;5017033;28;20605;-74
2023/12/10 00:31:25;;;;;;;1.60;1.50;;;7.80;99.90;;;;;;5023396;28;20085;-74
2023/12/10 00:33:51;;;;;;;0.82;0.68;;;7.80;99.90;;;;;;5022290;28;20521;-75
2023/12/10 00:36:18;;;;;;;1.25;1.02;;;7.80;99.90;;;;;;5020020;28;20056;-75
2023/12/10 00:38:45;;;;;;;0.50;0.50;;;7.80;99.90;;;;;;5005922;28;20096;-74
2023/12/10 00:41:12;;;;;;;0.70;0.70;;;7.80;99.90;;;;;;5022366;28;20532;-74
2023/12/10 00:43:41;;;;;;;0.60;0.60;;;7.70;99.90;;;;;;5015804;28;20045;-74
2023/12/10 00:46:07;;;;;;;0.47;0.47;;;7.70;99.90;;;;;;5024685;28;20085;-74
2023/12/10 00:48:37;;;;;;;0.63;0.63;;;7.80;99.90;;;;;;5021629;28;20219;-74
2023/12/10 00:51:03;;;;;;;0.50;0.50;;;7.80;99.90;;;;;;5019673;28;21407;-74
2023/12/10 00:53:29;;;;;;;1.55;0.90;;;7.80;99.90;;;;;;5030961;28;20183;-74
2023/12/10 00:55:56;;;;;;;0.73;0.73;;;7.80;99.90;;;;;;5019657;28;20776;-74
2023/12/10 00:58:21;;;;;;;0.50;0.50;;;7.80;99.90;;;;;;5018325;28;20553;-74
2023/12/10 01:00:47;;;;;;;4.03;0.82;;;7.80;99.90;;;;;;5021530;28;20046;-74
2023/12/10 01:03:12;;;;;;;0.63;0.63;;;7.80;99.90;;;;;;5023556;28;20045;-74
2023/12/10 01:05:38;;;;;;;1.60;1.50;;;7.90;99.90;;;;;;5018261;28;20150;-74
2023/12/10 01:08:04;;;;;;;8.70;1.58;;;7.90;99.90;;;;;;5018668;28;20057;-74
2023/12/10 01:10:30;;;;;;;1.55;0.85;;;7.90;99.90;;;;;;5024138;28;20038;-74
2023/12/10 01:12:56;;;;;;;0.82;0.82;;;7.90;99.90;;;;;;5006343;28;20129;-74
2023/12/10 01:15:29;;;;;;;2.25;0.90;;;7.90;99.90;;;;;;5017814;28;20510;-74
2023/12/10 01:18:02;;;;;;;0.30;0.30;;;7.90;99.90;;;;;;5017195;28;20057;-74
2023/12/10 01:20:32;;;;;;;0.40;0.40;;;7.90;99.90;;;;;;5016645;28;20111;-74
2023/12/10 01:22:58;;;;;;;0.57;0.57;;;7.90;99.90;;;;;;5019032;28;20084;-74
2023/12/10 01:25:25;;;;;;;1.70;0.82;;;7.80;99.90;;;;;;5023422;28;20056;-73
2023/12/10 01:27:52;;;;;;;2.75;1.67;;;7.80;99.90;;;;;;5019759;28;20132;-74
2023/12/10 01:30:18;;;;;;;0.98;0.98;;;7.70;99.90;;;;;;5013874;28;20050;-74
2023/12/10 01:32:44;;;;;;;0.50;0.50;;;7.70;99.90;;;;;;5019321;28;20037;-74
2023/12/10 01:35:10;;;;;;;0.60;0.60;;;7.70;99.90;;;;;;5019948;28;20057;-73
2023/12/10 01:37:35;;;;;;;0.55;0.55;;;7.70;99.90;;;;;;5021183;28;20045;-74
2023/12/10 01:40:05;;;;;;;0.60;0.60;;;7.60;99.90;;;;;;5022550;28;20038;-74
2023/12/10 01:42:33;;;;;;;0.40;0.40;;;7.60;99.90;;;;;;5020432;28;20046;-74
2023/12/10 01:44:59;;;;;;;1.45;1.35;;;7.60;99.90;;;;;;5020470;28;20045;-74
2023/12/10 01:47:24;;;;;;;1.45;1.25;;;7.60;99.90;;;;;;5018654;28;20069;-74
2023/12/10 01:49:50;;;;;;;0.70;0.70;;;7.60;99.90;;;;;;5019083;28;20088;-74
2023/12/10 01:52:16;;;;;;;0.70;0.70;;;7.60;99.90;;;;;;5017514;28;20053;-74
2023/12/10 01:54:42;;;;;;;1.13;0.70;;;7.50;99.90;;;;;;5019847;28;20049;-74
2023/12/10 01:57:09;;;;;;;0.60;0.60;;;7.50;99.90;;;;;;5017460;28;20050;-74
2023/12/10 01:59:36;;;;;;;0.65;0.65;;;7.50;99.90;;;;;;5020285;28;20045;-74
2023/12/10 02:02:02;;;;;;;7.43;2.67;;;7.50;99.90;;;;;;5018496;28;20111;-74
2023/12/10 02:04:28;;;;;;;1.40;1.30;;;7.50;99.90;;;;;;5020735;28;20441;-74
2023/12/10 02:06:54;;;;;;;0.80;0.80;;;7.50;99.90;;;;;;5021533;28;20060;-74
2023/12/10 02:09:19;;;;;;;2.25;1.17;;;7.50;99.90;;;;;;5020611;28;20064;-74
2023/12/10 02:11:45;;;;;;;0.52;0.52;;;7.50;99.90;;;;;;5018651;28;20486;-74
2023/12/10 02:14:10;;;;;;;1.38;0.93;;;7.50;99.90;;;;;;5021156;28;20103;-74
2023/12/10 02:16:36;;;;;;;1.08;1.02;;;7.50;99.90;;;;;;5021972;28;20034;-74
2023/12/10 02:19:02;;;;;;;0.82;0.82;;;7.50;99.90;;;;;;5019105;28;20053;-74
2023/12/10 02:21:30;;;;;;;0.73;0.60;;;7.50;99.90;;;;;;5000231;28;20124;-74
2023/12/10 02:24:09;;;;;;;1.08;1.08;;;7.50;99.90;;;;;;5020312;28;20056;-74
2023/12/10 02:26:36;;;;;;;1.10;1.10;;;7.50;99.90;;;;;;5014338;28;20457;-74
2023/12/10 02:29:03;;;;;;;3.10;1.85;;;7.50;99.90;;;;;;5014155;28;20042;-74
2023/12/10 02:31:29;;;;;;;0.60;0.60;;;7.50;99.90;;;;;;5011640;28;20054;-74
2023/12/10 02:33:55;;;;;;;0.43;0.43;;;7.50;99.90;;;;;;5019364;28;20462;-74
2023/12/10 02:36:21;;;;;;;1.55;0.52;;;7.50;99.90;;;;;;5017940;28;20077;-74
2023/12/10 02:38:49;;;;;;;0.40;0.40;;;7.50;99.90;;;;;;5015914;28;20087;-74
2023/12/10 02:41:15;;;;;;;0.50;0.50;;;7.50;99.90;;;;;;5016965;28;20558;-75
2023/12/10 02:43:40;;;;;;;0.80;0.80;;;7.50;99.90;;;;;;5016481;28;20081;-74
2023/12/10 02:46:06;;;;;;;0.52;0.52;;;7.50;99.90;;;;;;5021599;28;20095;-74
2023/12/10 02:48:32;;;;;;;1.23;1.13;;;7.50;99.90;;;;;;5021419;28;20514;-74
2023/12/10 02:50:58;;;;;;;0.50;0.50;;;7.50;99.90;;;;;;5014878;28;20454;-74
2023/12/10 02:53:23;;;;;;;0.77;0.77;;;7.50;99.90;;;;;;5021040;28;20060;-74
2023/12/10 02:55:49;;;;;;;0.57;0.57;;;7.50;99.90;;;;;;5021090;28;20685;-74
2023/12/10 02:58:15;;;;;;;1.40;1.25;;;7.50;99.90;;;;;;5021170;28;20045;-75
2023/12/10 03:00:41;;;;;;;5.57;1.20;;;7.50;99.90;;;;;;5016595;28;20677;-74
2023/12/10 03:03:07;;;;;;;0.40;0.40;;;7.50;99.90;;;;;;5018788;28;20049;-74
2023/12/10 03:05:32;;;;;;;0.80;0.80;;;7.50;99.90;;;;;;5019401;28;20055;-74
2023/12/10 03:07:58;;;;;;;1.52;1.45;;;7.50;99.90;;;;;;5019854;28;20045;-74
2023/12/10 03:10:24;;;;;;;1.15;1.15;;;7.50;99.90;;;;;;5018732;28;20068;-74
2023/12/10 03:12:50;;;;;;;0.50;0.50;;;7.50;99.90;;;;;;5016572;28;20072;-74
2023/12/10 03:15:15;;;;;;;4.47;2.20;;;7.50;99.90;;;;;;5008639;28;20049;-74
2023/12/10 03:17:41;;;;;;;1.45;1.20;;;7.50;99.90;;;;;;5022111;28;20124;-73
2023/12/10 03:20:12;;;;;;;0.60;0.60;;;7.50;99.90;;;;;;5022260;28;20041;-75
2023/12/10 03:22:38;;;;;;;25.92;1.90;;;7.50;99.90;;;;;;5020672;28;20049;-75
2023/12/10 03:25:04;;;;;;;1.38;1.20;;;7.50;99.90;;;;;;5024546;28;20099;-75
2023/12/10 03:27:30;;;;;;;1.60;1.20;;;7.50;99.90;;;;;;5021959;28;20140;-74
2023/12/10 03:29:55;;;;;;;0.88;0.88;;;7.50;99.90;;;;;;5022638;28;20526;-75
2023/12/10 03:32:21;;;;;;;0.40;0.40;;;7.50;99.90;;;;;;5023850;28;20042;-75
2023/12/10 03:34:47;;;;;;;0.45;0.45;;;7.50;99.90;;;;;;5019209;28;20048;-75
2023/12/10 03:37:12;;;;;;;0.95;0.85;;;7.50;99.90;;;;;;5024038;28;20399;-75
2023/12/10 03:39:38;;;;;;;0.90;0.90;;;7.50;99.90;;;;;;5022291;28;20080;-75
2023/12/10 03:42:04;;;;;;;0.70;0.70;;;7.50;99.90;;;;;;5023127;28;20245;-75
2023/12/10 03:44:31;;;;;;;0.80;0.80;;;7.40;99.90;;;;;;5021700;28;20060;-75
2023/12/10 03:47:01;;;;;;;1.00;1.00;;;7.40;99.90;;;;;;5021294;28;20080;-75
2023/12/10 03:49:28;;;;;;;0.30;0.30;;;7.50;99.90;;;;;;5021263;28;20192;-75
2023/12/10 03:51:55;;;;;;;0.68;0.68;;;7.40;99.90;;;;;;5023877;28;20452;-75
2023/12/10 03:54:21;;;;;;;3.60;1.67;;;7.40;99.90;;;;;;5025971;28;20120;-75
2023/12/10 03:56:47;;;;;;;1.20;1.10;;;7.40;99.90;;;;;;5027664;28;20045;-75
2023/12/10 03:59:12;;;;;;;1.15;1.05;;;7.40;99.90;;;;;;5027087;28;20398;-75
2023/12/10 04:01:45;;;;;;;1.05;1.05;;;7.40;99.90;;;;;;5027359;28;20050;-75
2023/12/10 04:04:14;;;;;;;0.60;0.60;;;7.40;99.90;;;;;;5020354;28;20056;-75
2023/12/10 04:06:40;;;;;;;3.03;1.13;;;7.40;99.90;;;;;;5026823;28;20049;-75
2023/12/10 04:09:09;;;;;;;0.60;0.60;;;7.40;99.90;;;;;;5022395;28;20389;-75
2023/12/10 04:11:36;;;;;;;1.05;0.70;;;7.30;99.90;;;;;;5030541;28;20045;-76
2023/12/10 04:14:02;;;;;;;1.35;1.35;;;7.40;99.90;;;;;;5025248;28;20080;-75
2023/12/10 04:16:30;;;;;;;19.80;1.05;;;7.40;99.90;;;;;;5027385;28;20141;-76
2023/12/10 04:18:56;;;;;;;0.50;0.50;;;7.40;99.90;;;;;;5027114;28;20433;-76
2023/12/10 04:21:22;;;;;;;7.15;1.90;;;7.40;99.90;;;;;;5024567;28;20056;-76
2023/12/10 04:23:49;;;;;;;2.47;0.57;;;7.40;99.90;;;;;;5027278;28;20088;-75
2023/12/10 04:26:15;;;;;;;1.17;0.93;;;7.40;99.90;;;;;;5024963;28;20069;-75
2023/12/10 04:28:42;;;;;;;18.52;2.13;;;7.40;99.90;;;;;;5023254;28;20045;-76
2023/12/10 04:31:08;;;;;;;1.75;0.73;;;7.40;99.90;;;;;;5023870;28;20578;-75
2023/12/10 04:33:34;;;;;;;0.70;0.70;;;7.40;99.90;;;;;;5040672;28;20061;-76
2023/12/10 04:36:00;;;;;;;0.40;0.40;;;7.40;99.90;;;;;;5025046;28;20279;-75
2023/12/10 04:38:28;;;;;;;0.60;0.60;;;7.50;99.90;;;;;;5022341;28;20058;-76
2023/12/10 04:40:54;;;;;;;0.55;0.55;;;7.40;99.90;;;;;;5027039;28;20084;-76
2023/12/10 04:43:20;;;;;;;0.40;0.40;;;7.40;99.90;;;;;;5026993;28;20418;-75
2023/12/10 04:45:45;;;;;;;0.45;0.45;;;7.50;99.90;;;;;;5025522;28;20045;-75
2023/12/10 04:48:12;;;;;;;0.90;0.90;;;7.50;99.90;;;;;;5026513;28;20041;-76
2023/12/10 04:50:38;;;;;;;0.82;0.80;;;7.50;99.90;;;;;;5024603;28;20068;-76
2023/12/10 04:53:04;;;;;;;0.75;0.75;;;7.50;99.90;;;;;;5026099;28;20042;-76
2023/12/10 04:55:29;;;;;;;1.55;1.00;;;7.60;99.90;;;;;;5022451;28;20041;-76
2023/12/10 04:57:55;;;;;;;0.43;0.43;;;7.60;99.90;;;;;;5014195;28;20121;-76
2023/12/10 05:00:21;;;;;;;0.68;0.68;;;7.50;99.90;;;;;;5023930;28;20048;-76
2023/12/10 05:02:46;;;;;;;0.50;0.50;;;7.50;99.90;;;;;;5019888;28;20133;-76
2023/12/10 05:05:12;;;;;;;0.55;0.55;;;7.60;99.90;;;;;;5020692;28;20051;-76
2023/12/10 05:07:38;;;;;;;0.75;0.75;;;7.60;99.90;;;;;;5008764;28;20611;-76
2023/12/10 05:10:04;;;;;;;2.33;1.63;;;7.60;99.90;;;;;;5023589;28;20781;-76
2023/12/10 05:12:30;;;;;;;0.45;0.45;;;7.60;99.90;;;;;;5026821;28;20044;-76
2023/12/10 05:14:56;;;;;;;0.65;0.65;;;7.70;99.90;;;;;;5016354;28;20038;-76
2023/12/10 05:17:21;;;;;;;1.05;0.70;;;7.70;99.90;;;;;;5025400;28;20064;-76
2023/12/10 05:19:47;;;;;;;1.58;1.35;;;7.70;99.90;;;;;;5024923;28;20041;-75
2023/12/10 05:22:13;;;;;;;1.00;1.00;;;7.80;99.90;;;;;;5024430;28;20554;-76
2023/12/10 05:24:40;;;;;;;0.85;0.85;;;7.80;99.90;;;;;;5023020;28;20053;-76
2023/12/10 05:27:06;;;;;;;1.48;1.20;;;7.70;99.90;;;;;;5025823;28;20053;-75
2023/12/10 05:29:32;;;;;;;2.15;1.00;;;7.80;99.90;;;;;;5019360;28;20104;-76
2023/12/10 05:31:57;;;;;;;0.50;0.50;;;7.80;99.90;;;;;;5016180;28;20073;-75
2023/12/10 05:34:23;;;;;;;7.15;1.38;;;7.80;99.90;;;;;;5016634;28;20508;-75
2023/12/10 05:36:49;;;;;;;0.52;0.52;;;7.80;99.90;;;;;;5019978;28;20347;-75
2023/12/10 05:39:14;;;;;;;0.73;0.73;;;7.90;99.90;;;;;;5019587;28;20138;-76
2023/12/10 05:41:41;;;;;;;0.63;0.63;;;7.90;99.90;;;;;;5022552;28;20045;-76
2023/12/10 05:44:06;;;;;;;0.60;0.57;;;7.80;99.90;;;;;;5025722;28;20045;-76
2023/12/10 05:46:32;;;;;;;0.80;0.80;;;7.90;99.90;;;;;;5020530;28;20049;-76
2023/12/10 05:48:58;;;;;;;0.50;0.50;;;7.90;99.90;;;;;;5008852;28;20041;-76
2023/12/10 05:51:23;;;;;;;0.60;0.60;;;7.90;99.90;;;;;;5004290;28;20139;-75
2023/12/10 05:53:51;;;;;;;1.00;1.00;;;7.90;99.90;;;;;;5015832;28;20125;-76
2023/12/10 05:56:16;;;;;;;10.25;1.55;;;7.90;99.90;;;;;;5018307;28;20052;-76
2023/12/10 05:58:42;;;;;;;0.40;0.40;;;8.00;99.90;;;;;;5023706;28;20494;-76
2023/12/10 06:01:08;;;;;;;3.38;1.48;;;7.90;99.90;;;;;;5020451;28;20104;-76
2023/12/10 06:03:34;;;;;;;0.60;0.60;;;7.90;99.90;;;;;;5007705;28;20222;-76
2023/12/10 06:05:59;;;;;;;2.47;0.82;;;8.00;99.90;;;;;;5019288;28;20037;-76
2023/12/10 06:08:25;;;;;;;0.57;0.57;;;8.00;99.90;;;;;;5019648;28;20132;-76
2023/12/10 06:10:51;;;;;;;0.40;0.40;;;8.00;99.90;;;;;;5017352;28;20140;-76
2023/12/10 06:13:17;;;;;;;0.52;0.52;;;8.00;99.90;;;;;;5017649;28;20049;-76
2023/12/10 06:15:43;;;;;;;0.43;0.43;;;8.00;99.90;;;;;;5019992;28;20041;-76
2023/12/10 06:18:09;;;;;;;0.40;0.40;;;8.00;99.90;;;;;;5018405;28;20049;-76
2023/12/10 06:20:35;;;;;;;0.60;0.60;;;8.10;99.90;;;;;;5017363;28;20045;-76
2023/12/10 06:23:02;;;;;;;0.60;0.60;;;8.10;99.90;;;;;;5018794;28;20146;-76
2023/12/10 06:25:27;;;;;;;0.38;0.38;;;8.10;99.90;;;;;;5015535;28;20061;-76
2023/12/10 06:27:54;;;;;;;10.63;1.15;;;8.00;99.90;;;;;;5018097;28;20122;-76
2023/12/10 06:30:20;;;;;;;0.60;0.60;;;8.10;99.90;;;;;;5017316;28;20051;-76
2023/12/10 06:32:45;;;;;;;1.80;0.63;;;8.10;99.90;;;;;;5016244;28;20161;-76
2023/12/10 06:35:11;;;;;;;0.68;0.68;;;8.10;99.90;;;;;;5013920;28;20083;-76
2023/12/10 06:37:38;;;;;;;0.40;0.40;;;8.10;99.90;;;;;;5011725;28;20498;-76
2023/12/10 06:40:05;;;;;;;0.88;0.77;;;8.10;99.90;;;;;;5018523;28;20095;-75
2023/12/10 06:42:32;;;;;;;0.80;0.80;;;8.10;99.90;;;;;;5016030;28;20161;-75
2023/12/10 06:44:59;;;;;;;0.47;0.47;;;8.20;99.90;;;;;;5021518;28;20453;-76
2023/12/10 06:47:25;;;;;;;1.65;1.25;;;8.20;99.90;;;;;;5017144;28;20041;-76
2023/12/10 06:49:50;;;;;;;0.60;0.60;;;8.20;99.90;;;;;;5016093;28;20792;-76
2023/12/10 06:52:17;;;;;;;0.40;0.40;;;8.10;99.90;;;;;;5018127;28;20136;-76
2023/12/10 06:54:43;;;;;;;1.58;1.25;;;8.10;99.90;;;;;;5020143;28;20060;-76
2023/12/10 06:57:08;;;;;;;0.40;0.40;;;8.10;99.90;;;;;;5014882;28;20046;-75
2023/12/10 06:59:34;;;;;;;0.50;0.50;;;8.10;99.90;;;;;;5019731;28;20049;-76
2023/12/10 07:02:00;;;;;;;0.47;0.47;;;8.10;99.90;;;;;;5021419;28;20033;-76
2023/12/10 07:04:25;;;;;;;0.40;0.40;;;8.10;99.90;;;;;;5019489;28;20048;-76
2023/12/10 07:06:51;;;;;;;0.50;0.50;;;8.10;99.90;;;;;;5015694;28;20192;-74
2023/12/10 07:09:17;;;;;;;0.40;0.40;;;8.10;99.90;;;;;;5019388;28;20056;-76
2023/12/10 07:11:42;;;;;;;1.02;1.02;;;8.20;99.90;;;;;;5016987;28;20388;-76
2023/12/10 07:14:08;;;;;;;0.82;0.82;;;8.10;99.90;;;;;;5017238;28;20038;-76
2023/12/10 07:16:33;;;;;;;0.50;0.50;;;8.10;99.90;;;;;;5016721;28;20062;-76
2023/12/10 07:18:59;;;;;;;1.90;1.23;;;8.20;99.90;;;;;;5018544;28;20049;-76
2023/12/10 07:21:30;;;;;;;1.15;0.80;;;8.20;99.90;;;;;;5016624;28;20049;-76
2023/12/10 07:23:56;;;;;;;1.05;0.98;;;8.10;99.90;;;;;;5018793;28;20089;-76
2023/12/10 07:26:23;;;;;;;0.60;0.60;;;8.10;99.90;;;;;;5019361;28;20758;-76
2023/12/10 07:28:49;;;;;;;0.77;0.77;;;8.20;99.90;;;;;;5024997;28;20136;-76
2023/12/10 07:31:14;;;;;;;0.40;0.40;;;8.20;99.90;;;;;;5021063;28;20137;-76
2023/12/10 07:33:40;;;;;;;1.05;1.05;;;8.20;99.90;;;;;;5024034;28;20128;-76
2023/12/10 07:36:07;;;;;;;0.65;0.65;;;8.10;99.90;;;;;;5024626;28;20093;-76
2023/12/10 07:38:33;;;;;;;1.60;1.50;;;8.20;99.90;;;;;;5025007;28;20052;-76
2023/12/10 07:40:59;;;;;;;2.78;1.58;;;8.20;99.90;;;;;;5024993;28;20049;-76
2023/12/10 07:43:24;;;;;;;0.50;0.50;;;8.20;99.90;;;;;;5021997;28;20056;-76
2023/12/10 07:45:50;;;;;;;0.80;0.80;;;8.20;99.90;;;;;;5017288;28;20045;-76
2023/12/10 07:48:16;;;;;;;1.05;0.93;;;8.10;99.90;;;;;;5022417;28;21053;-76
2023/12/10 07:50:41;;;;;;;0.40;0.40;;;8.20;99.90;;;;;;5003329;28;20052;-77
2023/12/10 07:53:07;;;;;;;0.50;0.50;;;8.20;99.90;;;;;;5025854;28;20042;-76
2023/12/10 07:55:33;;;;;;;0.40;0.40;;;8.10;99.90;;;;;;5024628;28;20080;-76
2023/12/10 07:57:58;;;;;;;1.83;0.88;;;8.20;99.90;;;;;;5025025;28;20069;-76
2023/12/10 08:00:24;;;;;;;0.40;0.40;;;8.20;99.90;;;;;;5020708;28;20045;-76
2023/12/10 08:02:50;;;;;;;0.43;0.43;;;8.10;99.90;;;;;;5019856;28;20085;-76
2023/12/10 08:05:15;;;;;;;1.48;1.20;;;8.10;99.90;;;;;;5026072;28;20054;-76
2023/12/10 08:07:41;;;;;;;0.40;0.40;;;8.10;99.90;;;;;;5020867;28;20048;-76
2023/12/10 08:10:07;;;;;;;1.90;1.80;;;8.20;99.90;;;;;;5025799;28;20598;-75
2023/12/10 08:12:34;;;;;;;1.10;1.00;;;8.10;99.90;;;;;;5027940;28;20041;-76
2023/12/10 08:15:00;;;;;;;0.77;0.77;;;8.10;99.90;;;;;;5021885;28;20046;-76
2023/12/10 08:17:25;;;;;;;1.85;0.88;;;8.10;99.90;;;;;;5021174;28;20517;-76
2023/12/10 08:19:51;;;;;;;0.40;0.40;;;8.10;99.90;;;;;;5024519;28;20087;-75
2023/12/10 08:22:17;;;;;;;0.40;0.40;;;8.10;99.90;;;;;;5016920;28;20084;-76
2023/12/10 08:24:43;;;;;;;0.60;0.60;;;8.10;99.90;;;;;;5021641;28;20045;-75
2023/12/10 08:27:09;;;;;;;1.10;0.82;;;8.10;99.90;;;;;;5022243;28;20065;-76
2023/12/10 08:29:35;;;;;;;0.57;0.57;;;8.10;99.90;;;;;;5020206;28;20049;-76
2023/12/10 08:32:01;;;;;;;2.15;0.55;;;8.10;99.90;;;;;;5021248;28;20532;-75
2023/12/10 08:34:26;;;;;;;0.47;0.47;;;8.10;99.90;;;;;;5019599;28;20042;-75
2023/12/10 08:36:52;;;;;;;1.95;1.05;;;8.10;99.90;;;;;;5019540;28;20049;-75
2023/12/10 08:39:18;;;;;;;1.23;1.13;;;8.10;99.90;;;;;;5015001;28;20064;-75
2023/12/10 08:41:43;;;;;;;1.30;1.20;;;8.10;99.90;;;;;;5020229;28;20047;-75
2023/12/10 08:44:10;;;;;;;0.43;0.43;;;8.10;99.90;;;;;;5024041;28;20132;-75
2023/12/10 08:46:36;;;;;;;4.05;0.82;;;8.10;99.90;;;;;;5010637;28;20060;-75
2023/12/10 08:49:01;;;;;;;2.65;0.93;;;8.10;99.90;;;;;;5018191;28;20060;-75
2023/12/10 08:51:27;;;;;;;0.50;0.50;;;8.10;99.90;;;;;;5013489;28;20041;-75
2023/12/10 08:53:53;;;;;;;1.35;1.27;;;8.10;99.90;;;;;;5017796;28;20057;-75
2023/12/10 08:56:19;;;;;;;1.65;1.25;;;8.10;99.90;;;;;;5022289;28;20064;-75
2023/12/10 08:58:46;;;;;;;0.40;0.40;;;8.00;99.90;;;;;;5021103;28;20045;-75
2023/12/10 09:01:12;;;;;;;0.57;0.45;;;8.10;99.90;;;;;;5020808;28;20411;-75
2023/12/10 09:03:42;;;;;;;0.55;0.55;;;8.00;99.90;;;;;;5018412;28;20073;-75
2023/12/10 09:06:08;;;;;;;0.47;0.47;;;8.10;99.90;;;;;;5017987;28;20084;-75
2023/12/10 09:08:34;;;;;;;0.40;0.40;;;8.00;99.90;;;;;;5019129;28;20236;-75
2023/12/10 09:11:03;;;;;;;0.40;0.40;;;8.10;99.90;;;;;;5018743;28;20041;-75
2023/12/10 09:13:30;;;;;;;0.88;0.88;;;8.10;99.90;;;;;;5023390;28;20095;-75
2023/12/10 09:15:56;;;;;;;0.88;0.88;;;8.10;99.90;;;;;;5021448;28;20441;-75
2023/12/10 09:18:21;;;;;;;0.47;0.47;;;8.10;99.90;;;;;;5019012;28;20103;-75
2023/12/10 09:20:48;;;;;;;0.45;0.45;;;8.00;99.90;;;;;;5020865;28;20388;-75
2023/12/10 09:23:14;;;;;;;0.73;0.73;;;8.10;99.90;;;;;;5016998;28;20061;-75
2023/12/10 09:25:39;;;;;;;0.38;0.38;;;8.00;99.90;;;;;;5016140;28;20050;-75
2023/12/10 09:28:06;;;;;;;0.50;0.50;;;8.10;99.90;;;;;;5015752;28;20042;-75
2023/12/10 09:30:31;;;;;;;0.45;0.45;;;8.10;99.90;;;;;;5018775;28;20037;-75
2023/12/10 09:32:58;;;;;;;0.50;0.50;;;8.00;99.90;;;;;;5021345;28;20050;-75
2023/12/10 09:35:23;;;;;;;0.75;0.75;;;8.10;99.90;;;;;;5020073;28;20612;-75
2023/12/10 09:37:49;;;;;;;1.17;1.05;;;8.10;99.90;;;;;;5023061;28;20049;-74
2023/12/10 09:40:15;;;;;;;0.45;0.45;;;8.10;99.90;;;;;;5017852;28;20045;-75
2023/12/10 09:42:41;;;;;;;2.65;1.30;;;8.10;99.90;;;;;;5019586;28;20041;-75
2023/12/10 09:45:07;;;;;;;0.60;0.60;;;8.10;99.90;;;;;;5018134;28;20049;-75
2023/12/10 09:47:35;;;;;;;0.73;0.73;;;8.10;99.90;;;;;;5023088;28;20052;-75
2023/12/10 09:50:02;;;;;;;0.60;0.60;;;8.10;99.90;;;;;;5021591;28;20037;-75
2023/12/10 09:52:28;;;;;;;0.50;0.50;;;8.10;99.90;;;;;;5019034;28;20076;-75
2023/12/10 09:54:54;;;;;;;0.50;0.50;;;8.10;99.90;;;;;;5013666;28;20459;-75
2023/12/10 09:57:21;;;;;;;0.80;0.80;;;8.20;99.90;;;;;;5024029;28;20103;-75
2023/12/10 09:59:49;;;;;;;0.70;0.70;;;8.10;99.90;;;;;;5025737;28;20068;-75
2023/12/10 10:02:16;;;;;;;1.17;0.98;;;8.20;99.90;;;;;;5018563;28;20434;-75
2023/12/10 10:04:42;;;;;;;2.55;0.77;;;8.20;99.90;;;;;;5019845;28;20049;-75
2023/12/10 10:07:08;;;;;;;0.50;0.50;;;8.20;99.90;;;;;;5017853;28;20053;-75
2023/12/10 10:09:35;;;;;;;0.60;0.60;;;8.20;99.90;;;;;;5016169;28;20052;-75
2023/12/10 10:12:01;;;;;;;0.40;0.40;;;8.20;99.90;;;;;;5018632;28;20049;-75
2023/12/10 10:14:27;;;;;;;1.00;1.00;;;8.20;99.90;;;;;;5017232;28;20045;-75
2023/12/10 10:16:53;;;;;;;0.68;0.68;;;8.20;99.90;;;;;;5016017;28;20044;-75
2023/12/10 10:19:20;;;;;;;0.98;0.98;;;8.20;99.90;;;;;;5013529;28;20796;-75
2023/12/10 10:21:46;;;;;;;4.55;1.67;;;8.20;99.90;;;;;;5019600;28;20429;-75
2023/12/10 10:24:13;;;;;;;0.52;0.52;;;8.20;99.90;;;;;;5016058;28;20049;-75
2023/12/10 10:26:39;;;;;;;0.55;0.55;;;8.20;99.90;;;;;;5015591;28;20064;-75
2023/12/10 10:29:06;;;;;;;0.85;0.85;;;8.20;99.90;;;;;;5014379;28;20045;-75
2023/12/10 10:31:35;;;;;;;2.15;1.02;;;8.20;99.90;;;;;;5020421;28;20041;-75
2023/12/10 10:34:05;;;;;;;0.40;0.40;;;8.20;99.90;;;;;;5018130;28;20049;-75
2023/12/10 10:36:32;;;;;;;3.05;1.92;;;8.20;99.90;;;;;;5016338;28;20507;-75
2023/12/10 10:38:58;;;;;;;0.52;0.52;;;8.20;99.90;;;;;;5017843;28;20431;-75
2023/12/10 10:41:25;;;;;;;1.35;1.25;;;8.20;99.90;;;;;;5012343;28;20053;-75
2023/12/10 10:43:50;;;;;;;0.60;0.60;;;8.20;99.90;;;;;;5022327;28;20127;-75
2023/12/10 10:46:20;;;;;;;0.50;0.50;;;8.30;99.90;;;;;;5015912;28;20057;-76
2023/12/10 10:48:51;;;;;;;1.80;1.65;;;8.20;99.90;;;;;;5015582;28;20405;-75
2023/12/10 10:51:29;;;;;;;0.73;0.73;;;8.20;99.90;;;;;;5016146;28;20037;-75
2023/12/10 10:53:58;;;;;;;0.60;0.60;;;8.30;99.90;;;;;;5016332;28;20056;-75
2023/12/10 10:56:27;;;;;;;;;;;8.20;99.90;;;;;;5012271;28;20049;-75
2023/12/10 10:58:52;;;;;;;0.65;0.63;;;8.30;99.90;;;;;;5015575;28;19925;-75
2023/12/10 11:01:43;;;;;;;0.40;0.40;;;8.30;99.90;;;;;;5012614;28;20053;-76
2023/12/10 11:04:14;;;;;;;3.28;1.35;;;8.30;99.90;;;;;;5005853;28;20878;-75
2023/12/10 11:06:40;;;;;;;0.68;0.68;;;8.30;99.90;;;;;;5017507;28;20045;-75
2023/12/10 11:09:06;;;;;;;0.60;0.60;;;8.30;99.90;;;;;;5016368;28;20128;-75
2023/12/10 11:11:39;;;;;;;1.38;1.27;;;8.30;99.90;;;;;;5017969;28;20118;-75
2023/12/10 11:14:20;;;;;;;1.15;1.15;;;8.30;99.90;;;;;;5017092;28;20049;-76
2023/12/10 11:17:02;;;;;;;0.75;0.75;;;8.30;99.90;;;;;;5016920;28;20041;-75
2023/12/10 11:19:32;;;;;;;1.70;0.88;;;8.30;99.90;;;;;;5014022;28;20037;-75
2023/12/10 11:21:59;;;;;;;0.60;0.60;;;8.30;99.90;;;;;;5019667;28;20045;-74
2023/12/10 11:24:25;;;;;;;0.95;0.95;;;8.40;99.90;;;;;;5019796;28;20089;-75
2023/12/10 11:26:51;;;;;;;2.80;2.40;;;8.30;99.90;;;;;;5019322;28;20172;-75
2023/12/10 11:29:16;;;;;;;0.77;0.77;;;8.40;99.90;;;;;;5014547;28;20054;-75
2023/12/10 11:31:46;;;;;;;1.75;1.30;;;8.40;99.90;;;;;;5018558;28;20045;-75
2023/12/10 11:34:12;;;;;;;1.25;0.88;;;8.30;99.90;;;;;;5015042;28;20053;-75
2023/12/10 11:36:38;;;;;;;1.23;1.13;;;8.40;99.90;;;;;;5019290;28;20045;-75
2023/12/10 11:39:11;;;;;;;0.95;0.85;;;8.40;99.90;;;;;;5018640;28;20136;-75
2023/12/10 11:41:39;;;;;;;10.50;1.40;;;8.40;99.90;;;;;;5022613;28;20053;-74
2023/12/10 11:44:04;;;;;;;1.85;1.10;;;8.40;99.90;;;;;;5018285;28;20049;-74
2023/12/10 11:46:30;;;;;;;0.50;0.50;;;8.40;99.90;;;;;;5018717;28;20532;-74
2023/12/10 11:48:56;;;;;;;0.60;0.60;;;8.50;99.90;;;;;;5003439;28;20718;-74
2023/12/10 11:51:22;;;;;;;0.80;0.68;;;8.50;99.90;;;;;;5022690;28;20572;-75
2023/12/10 11:53:49;;;;;;;0.50;0.50;;;8.60;99.90;;;;;;5019600;28;20477;-74
2023/12/10 11:56:14;;;;;;;0.90;0.80;;;8.60;99.90;;;;;;5017145;28;20214;-75
2023/12/10 11:58:44;;;;;;;1.00;1.00;;;8.70;99.90;;;;;;5018814;28;20041;-75
2023/12/10 12:01:10;;;;;;;1.20;1.20;;;8.60;99.90;;;;;;5018402;28;20044;-75
2023/12/10 12:03:36;;;;;;;1.98;1.88;;;8.60;99.90;;;;;;5019842;28;20041;-75
2023/12/10 12:06:04;;;;;;;1.48;0.82;;;8.60;99.90;;;;;;5022251;28;20037;-75
2023/12/10 12:08:30;;;;;;;1.00;1.00;;;8.60;99.90;;;;;;5002614;28;20050;-75
2023/12/10 12:10:57;;;;;;;4.82;1.42;;;8.60;99.90;;;;;;5019457;28;20115;-75
2023/12/10 12:13:23;;;;;;;0.40;0.40;;;8.60;99.90;;;;;;5022119;28;20057;-75
2023/12/10 12:15:50;;;;;;;0.57;0.57;;;8.60;99.90;;;;;;5022253;28;20060;-75
2023/12/10 12:18:16;;;;;;;0.90;0.85;;;8.60;99.90;;;;;;5021269;28;20088;-75
2023/12/10 12:20:43;;;;;;;1.05;0.70;;;8.60;99.90;;;;;;5019909;28;20078;-75
2023/12/10 12:23:09;;;;;;;0.75;0.75;;;8.60;99.90;;;;;;5026719;28;20049;-75
2023/12/10 12:25:37;;;;;;;0.50;0.50;;;8.60;99.90;;;;;;5014710;28;20087;-75
2023/12/10 12:28:07;;;;;;;0.80;0.80;;;8.50;99.90;;;;;;5016550;28;20148;-76
2023/12/10 12:30:34;;;;;;;0.77;0.77;;;8.50;99.90;;;;;;5019066;28;20041;-75
2023/12/10 12:33:00;;;;;;;0.70;0.70;;;8.50;99.90;;;;;;5017241;28;20053;-75
2023/12/10 12:35:26;;;;;;;0.30;0.30;;;8.50;99.90;;;;;;5030354;28;20048;-75
2023/12/10 12:37:51;;;;;;;0.50;0.50;;;8.50;99.90;;;;;;5019573;28;20053;-80
2023/12/10 12:40:18;;;;;;;1.00;0.60;;;8.60;99.90;;;;;;5023339;28;20041;-75
2023/12/10 12:42:43;;;;;;;1.50;1.30;;;8.50;99.90;;;;;;5022209;28;20058;-73
2023/12/10 12:45:09;;;;;;;1.75;0.50;;;8.50;99.90;;;;;;5022439;28;21557;-73
2023/12/10 12:47:35;;;;;;;1.27;1.23;;;8.50;99.90;;;;;;5017025;28;20050;-73
2023/12/10 12:50:00;;;;;;;1.27;0.50;;;8.50;99.90;;;;;;5014908;28;20046;-73
2023/12/10 12:52:28;;;;;;;2.15;1.02;;;8.50;99.90;;;;;;5021513;28;20029;-73
2023/12/10 12:54:54;;;;;;;1.40;0.80;;;8.50;99.90;;;;;;5014419;28;20533;-73